createdAt,value
2018-02-24T00:01:49.067Z,14.85
2018-02-24T00:04:18.884Z,13.48
2018-02-24T00:06:48.717Z,13.00
2018-02-24T00:09:18.505Z,14.55
2018-02-24T00:11:48.340Z,15.07
2018-02-24T00:14:18.166Z,13.70
2018-02-24T00:16:47.694Z,14.25
2018-02-24T00:19:17.478Z,14.25
2018-02-24T00:21:47.304Z,13.15
2018-02-24T00:24:17.106Z,14.68
2018-02-24T00:26:46.914Z,12.93
2018-02-24T00:29:16.755Z,14.73
2018-02-24T00:31:46.529Z,13.50
2018-02-24T00:34:16.071Z,13.10
2018-02-24T00:36:45.884Z,14.07
2018-02-24T00:39:15.720Z,12.85
2018-02-24T00:41:45.762Z,14.13
2018-02-24T00:44:16.349Z,13.62
2018-02-24T00:46:46.342Z,13.07
2018-02-24T00:49:15.939Z,12.57
2018-02-24T00:51:45.161Z,12.95
2018-02-24T00:54:14.105Z,14.23
2018-02-24T00:56:44.499Z,13.27
2018-02-24T00:59:14.902Z,13.55
2018-02-24T01:01:44.877Z,13.85
2018-02-24T01:04:14.208Z,14.18
2018-02-24T01:06:44.058Z,13.10
2018-02-24T01:09:14.329Z,14.10
2018-02-24T01:11:44.156Z,13.27
2018-02-24T01:14:13.930Z,13.62
2018-02-24T01:16:43.741Z,13.23
2018-02-24T01:19:13.552Z,13.23
2018-02-24T01:21:43.110Z,13.18
2018-02-24T01:24:12.673Z,13.88
2018-02-24T01:26:42.185Z,14.55
2018-02-24T01:29:11.634Z,13.07
2018-02-24T01:31:41.465Z,13.85
2018-02-24T01:34:11.259Z,15.40
2018-02-24T01:36:40.804Z,14.20
2018-02-24T01:39:10.342Z,15.23
2018-02-24T01:41:39.890Z,14.87
2018-02-24T01:44:09.711Z,14.30
2018-02-24T01:46:39.543Z,16.00
2018-02-24T01:49:09.932Z,14.82
2018-02-24T01:51:39.749Z,15.30
2018-02-24T01:54:09.578Z,15.20
2018-02-24T01:56:39.410Z,14.02
2018-02-24T01:59:09.245Z,14.20
2018-02-24T02:01:39.027Z,15.60
2018-02-24T02:04:08.536Z,12.73
2018-02-24T02:06:38.326Z,13.95
2018-02-24T02:09:08.144Z,13.70
2018-02-24T02:11:37.688Z,13.43
2018-02-24T02:14:08.301Z,12.40
2018-02-24T02:16:38.148Z,11.73
2018-02-24T02:19:07.961Z,13.60
2018-02-24T02:21:37.773Z,12.98
2018-02-24T02:24:07.317Z,13.35
2018-02-24T02:26:37.140Z,13.02
2018-02-24T02:29:06.612Z,12.75
2018-02-24T02:31:36.412Z,13.38
2018-02-24T02:34:06.237Z,13.95
2018-02-24T02:36:36.016Z,12.73
2018-02-24T02:39:06.630Z,14.05
2018-02-24T02:41:36.422Z,13.80
2018-02-24T02:44:06.251Z,12.02
2018-02-24T02:46:36.520Z,12.88
2018-02-24T02:49:06.333Z,11.45
2018-02-24T02:51:36.132Z,10.80
2018-02-24T02:54:06.669Z,12.63
2018-02-24T02:56:36.482Z,12.98
2018-02-24T02:59:06.273Z,12.60
2018-02-24T03:01:36.847Z,12.70
2018-02-24T03:04:06.619Z,12.77
2018-02-24T03:06:37.210Z,12.75
2018-02-24T03:09:06.801Z,10.30
2018-02-24T03:11:36.633Z,11.23
2018-02-24T03:14:06.449Z,9.43
2018-02-24T03:16:36.323Z,10.77
2018-02-24T03:19:05.893Z,11.63
2018-02-24T03:21:35.681Z,11.35
2018-02-24T03:24:05.500Z,11.30
2018-02-24T03:26:35.416Z,10.82
2018-02-24T03:29:05.194Z,9.77
2018-02-24T03:31:35.015Z,9.40
2018-02-24T03:34:05.015Z,9.73
2018-02-24T03:36:34.610Z,9.20
2018-02-24T03:39:03.778Z,9.35
2018-02-24T03:41:33.377Z,9.32
2018-02-24T03:44:03.234Z,9.50
2018-02-24T03:46:32.867Z,9.15
2018-02-24T03:49:02.652Z,9.65
2018-02-24T03:51:32.617Z,8.75
2018-02-24T03:54:02.425Z,9.60
2018-02-24T03:56:32.299Z,9.70
2018-02-24T03:59:02.377Z,8.77
2018-02-24T04:01:31.964Z,9.30
2018-02-24T04:04:01.768Z,9.18
2018-02-24T04:06:31.354Z,8.30
2018-02-24T04:09:01.161Z,8.23
2018-02-24T04:11:31.017Z,8.20
2018-02-24T04:14:00.663Z,8.00
2018-02-24T04:16:31.305Z,7.55
2018-02-24T04:19:01.277Z,7.72
2018-02-24T04:21:31.077Z,8.13
2018-02-24T04:24:01.398Z,8.63
2018-02-24T04:26:31.156Z,8.15
2018-02-24T04:29:01.826Z,7.47
2018-02-24T04:31:31.666Z,9.10
2018-02-24T04:34:01.669Z,8.82
2018-02-24T04:36:31.493Z,9.43
2018-02-24T04:39:01.782Z,8.77
2018-02-24T04:41:31.341Z,9.20
2018-02-24T04:44:01.471Z,9.90
2018-02-24T04:46:31.293Z,8.65
2018-02-24T04:49:01.018Z,8.77
2018-02-24T04:51:31.743Z,7.55
2018-02-24T04:54:01.696Z,9.45
2018-02-24T04:56:32.436Z,11.32
2018-02-24T04:59:02.306Z,8.13
2018-02-24T05:01:33.863Z,10.40
2018-02-24T05:04:04.405Z,11.43
2018-02-24T05:06:34.247Z,11.48
2018-02-24T05:09:03.799Z,14.52
2018-02-24T05:11:33.352Z,17.37
2018-02-24T05:14:03.299Z,17.00
2018-02-24T05:16:33.997Z,15.60
2018-02-24T05:19:03.810Z,15.43
2018-02-24T05:21:33.600Z,17.73
2018-02-24T05:24:04.204Z,24.10
2018-02-24T05:26:33.861Z,22.52
2018-02-24T05:29:03.673Z,19.62
2018-02-24T05:31:33.512Z,20.48
2018-02-24T05:34:03.379Z,19.17
2018-02-24T05:36:33.468Z,18.50
2018-02-24T05:39:04.704Z,13.23
2018-02-24T05:41:34.355Z,11.82
2018-02-24T05:44:04.252Z,9.68
2018-02-24T05:46:34.888Z,6.37
2018-02-24T05:49:04.702Z,8.05
2018-02-24T05:51:34.556Z,8.93
2018-02-24T05:54:04.418Z,9.85
2018-02-24T05:56:34.305Z,9.25
2018-02-24T05:59:03.872Z,8.05
2018-02-24T06:01:33.698Z,8.75
2018-02-24T06:04:03.871Z,9.07
2018-02-24T06:06:33.974Z,8.05
2018-02-24T06:09:03.472Z,8.07
2018-02-24T06:11:33.024Z,8.82
2018-02-24T06:14:03.664Z,8.45
2018-02-24T06:16:34.379Z,8.65
2018-02-24T06:19:04.676Z,9.35
2018-02-24T06:21:36.594Z,9.65
2018-02-24T06:24:07.245Z,6.05
2018-02-24T06:26:36.920Z,5.70
2018-02-24T06:29:07.477Z,6.65
2018-02-24T06:31:37.316Z,6.70
2018-02-24T06:34:07.152Z,5.90
2018-02-24T06:36:36.908Z,6.35
2018-02-24T06:39:07.313Z,6.53
2018-02-24T06:41:37.877Z,6.12
2018-02-24T06:44:07.669Z,5.78
2018-02-24T06:46:37.192Z,5.32
2018-02-24T06:49:06.969Z,5.85
2018-02-24T06:51:36.764Z,5.40
2018-02-24T06:54:06.565Z,6.93
2018-02-24T06:56:36.354Z,6.68
2018-02-24T06:59:06.390Z,7.37
2018-02-24T07:01:36.219Z,12.40
2018-02-24T07:04:06.440Z,6.82
2018-02-24T07:06:36.502Z,9.00
2018-02-24T07:09:06.317Z,5.25
2018-02-24T07:11:36.844Z,4.95
2018-02-24T07:14:07.413Z,4.60
2018-02-24T07:16:37.505Z,5.05
2018-02-24T07:19:07.316Z,4.68
2018-02-24T07:21:37.090Z,4.15
2018-02-24T07:24:07.464Z,3.53
2018-02-24T07:26:37.778Z,3.40
2018-02-24T07:29:07.849Z,2.33
2018-02-24T07:31:38.061Z,1.52
2018-02-24T07:34:08.556Z,2.47
